Decatur, IL (62522)

12:00 AM CST on February 10, 2016 (GMT -0600)
Home Park and Oaklawn Drive | | Change Station
CLOSE
Current Station
Personal Weather Station
Location: Decatur, IL
Elevation: 686 ft
Nearby Weather Stations

Elev 686 ft 39.86 °N, 88.99 °W | Updated 9 minutes ago

Overcast
Overcast
12.6 °F
Feels Like -1 °F
N
11.0
Wind Variable Wind from WNW

Today
High -- | Low -- °F
--% Chance of Precip.
Yesterday
High -- | Low -- °F
Precip. -- in
Pressure 30.08 in
Visibility 10.0 miles
Clouds Overcast 3500 ft
Windchill -1 °F
Dew Point 8 °F
Humidity 83%
Rainfall in
Snow Depth Not available.
6:55 AM 5:25 PM
Waxing Crescent, 4% visible
METAR KDEC 100554Z AUTO 30015G21KT 10SM OVC035 M10/M15 A3005 RMK AO2 SLP186 60000 T11001150 11078 21100 410671100 52002
Pressure 30.08 in
Visibility 10.0 miles
Clouds Overcast 3500 ft
Windchill -1 °F
Dew Point 8 °F
Humidity 83%
Rainfall in
Snow Depth Not available.
6:55 AM 5:25 PM
Waxing Crescent, 4% visible
METAR KDEC 100554Z AUTO 30015G21KT 10SM OVC035 M10/M15 A3005 RMK AO2 SLP186 60000 T11001150 11078 21100 410671100 52002

10-Day Weather Forecast

Almanac

Astronomy

Feb. 10, 2016 Rise Set
Actual Time
Civil Twilight
Nautical Twilight
Astronomical Twilight
Moon
Length of Visible Light
Length of Day
Tomorrow will be .
, % of the Moon is Illuminated

Today's Extremes

State Highs State Lows

Community

WunderPhotos

Upload Photos

1,891,823 photos uploaded!

WunderBlog® & News

Nearby

Air Quality

  Air Quality AQ Index Pollutant
Not available.

Snow Depth

Station Depth Elevation

Earthquake Activity

City Distance Mag. Time & Date
Minimum magnitude displayed is 2.5.

Coastal Water Temperatures

Place Temperature

Stations

Nearby Weather Stations

Station Location Temp. Windchill Dew Point Humidity Wind Precip. Elev Updated Type
                   

Watches & Warnings

There are currently no watches in effect.